ESSD

Borlange Airport

Sweden
METAR ESSD 181950Z AUTO 28006KT 9999 FEW061/// BKN074/// 01/00 Q1020
Observed Flight Rules
Dec-18 @ 19:50 UTC (24 minutes ago) Visual Flight Rules
Wind Visibility Clouds
280° at 6 knots 10,000+ meters
  • Few at 6,100' AGL
  • Broken at 7,400' AGL
Temperatures Readings
Current 1°C / 34°F
Dewpoint 0°C / 32°F
Humidity 93%
Altimeter 30.12" Hg
Pressure 1020 hPa
Elevation 161
METAR ESSD 181950Z AUTO 28006KT 9999 FEW061/// BKN074/// 01/00 Q1020
Observed Flight Rules
Dec-18 @ 19:50 UTC
(24 minutes ago)
VFR
Wind Visibility
280° at 6 knots 10,000+ meters
Clouds
  • Few at 6,100' AGL
  • Broken at 7,400' AGL
Temperature Dewpoint
1°C / 34°F 0°C / 32°F
Humidity Altimeter Pressure
93% 30.12" Hg 1020 hPa